createdAt,value
2018-10-06T00:01:23.253Z,18.36
2018-10-06T00:03:51.571Z,18.27
2018-10-06T00:06:19.824Z,18.28
2018-10-06T00:08:48.176Z,18.30
2018-10-06T00:11:16.683Z,18.37
2018-10-06T00:13:45.184Z,18.36
2018-10-06T00:16:14.317Z,18.35
2018-10-06T00:18:42.564Z,18.23
2018-10-06T00:21:11.100Z,18.27
2018-10-06T00:23:39.401Z,18.28
2018-10-06T00:26:07.927Z,18.36
2018-10-06T00:28:36.291Z,18.13
2018-10-06T00:31:04.569Z,18.07
2018-10-06T00:33:33.064Z,18.22
2018-10-06T00:36:01.506Z,18.22
2018-10-06T00:38:29.899Z,18.28
2018-10-06T00:40:58.213Z,18.09
2018-10-06T00:43:26.542Z,18.16
2018-10-06T00:45:54.812Z,18.19
2018-10-06T00:48:23.122Z,18.23
2018-10-06T00:50:51.541Z,18.08
2018-10-06T00:53:19.938Z,18.18
2018-10-06T00:55:48.275Z,18.14
2018-10-06T00:58:16.577Z,18.10
2018-10-06T01:00:44.924Z,18.05
2018-10-06T01:03:13.243Z,17.94
2018-10-06T01:05:41.556Z,18.09
2018-10-06T01:08:09.997Z,18.06
2018-10-06T01:10:38.333Z,17.93
2018-10-06T01:13:06.695Z,17.84
2018-10-06T01:15:35.092Z,17.90
2018-10-06T01:18:03.514Z,17.97
2018-10-06T01:20:31.817Z,17.75
2018-10-06T01:23:00.276Z,17.97
2018-10-06T01:25:28.577Z,17.67
2018-10-06T01:27:57.003Z,17.61
2018-10-06T01:30:25.345Z,17.67
2018-10-06T01:32:53.673Z,17.91
2018-10-06T01:35:21.959Z,17.91
2018-10-06T01:37:50.371Z,17.50
2018-10-06T01:40:18.820Z,17.61
2018-10-06T01:42:47.106Z,18.00
2018-10-06T01:45:15.440Z,17.87
2018-10-06T01:47:43.768Z,17.37
2018-10-06T01:50:12.099Z,17.17
2018-10-06T01:52:40.453Z,17.29
2018-10-06T01:55:08.730Z,17.29
2018-10-06T01:57:37.009Z,17.42
2018-10-06T02:00:05.340Z,17.15
2018-10-06T02:02:33.702Z,17.21
2018-10-06T02:05:01.995Z,17.43
2018-10-06T02:07:30.388Z,17.31
2018-10-06T02:10:00.190Z,17.56
2018-10-06T02:12:28.674Z,17.18
2018-10-06T02:14:57.151Z,17.39
2018-10-06T02:17:25.449Z,17.61
2018-10-06T02:19:53.729Z,16.60
2018-10-06T02:22:22.304Z,16.88
2018-10-06T02:24:50.614Z,17.35
2018-10-06T02:27:18.963Z,16.82
2018-10-06T02:29:47.289Z,16.79
2018-10-06T02:32:15.606Z,16.52
2018-10-06T02:34:43.945Z,16.89
2018-10-06T02:37:12.246Z,16.75
2018-10-06T02:39:40.673Z,17.30
2018-10-06T02:42:08.960Z,17.21
2018-10-06T02:44:37.309Z,17.41
2018-10-06T02:47:05.741Z,17.55
2018-10-06T02:49:34.186Z,17.63
2018-10-06T02:52:02.491Z,17.52
2018-10-06T02:54:31.116Z,17.45
2018-10-06T02:56:59.418Z,17.62
2018-10-06T02:59:27.745Z,17.46
2018-10-06T03:01:56.240Z,17.45
2018-10-06T03:04:24.523Z,17.38
2018-10-06T03:06:52.856Z,17.38
2018-10-06T03:09:21.306Z,17.03
2018-10-06T03:11:49.785Z,17.32
2018-10-06T03:14:18.137Z,17.39
2018-10-06T03:16:46.560Z,17.58
2018-10-06T03:19:14.847Z,17.56
2018-10-06T03:21:43.125Z,17.65
2018-10-06T03:24:11.501Z,17.48
2018-10-06T03:26:39.817Z,17.17
2018-10-06T03:29:08.140Z,17.30
2018-10-06T03:31:36.464Z,17.32
2018-10-06T03:34:04.783Z,17.46
2018-10-06T03:36:33.104Z,17.14
2018-10-06T03:39:01.536Z,17.17
2018-10-06T03:41:29.834Z,16.92
2018-10-06T03:43:58.260Z,16.91
2018-10-06T03:46:26.538Z,17.02
2018-10-06T03:48:54.825Z,16.81
2018-10-06T03:51:23.199Z,16.61
2018-10-06T03:53:51.514Z,16.93
2018-10-06T03:56:19.815Z,17.11
2018-10-06T03:58:48.235Z,17.24
2018-10-06T04:01:16.566Z,16.99
2018-10-06T04:03:44.892Z,16.82
2018-10-06T04:06:13.270Z,16.74
2018-10-06T04:08:41.573Z,16.57
2018-10-06T04:11:10.059Z,16.94
2018-10-06T04:13:38.345Z,16.53
2018-10-06T04:16:06.792Z,16.79
2018-10-06T04:18:35.056Z,16.81
2018-10-06T04:21:03.408Z,16.78
2018-10-06T04:23:31.685Z,16.61
2018-10-06T04:26:00.085Z,16.87
2018-10-06T04:28:28.502Z,16.77
2018-10-06T04:30:56.741Z,16.73
2018-10-06T04:33:25.106Z,16.72
2018-10-06T04:35:53.393Z,16.80
2018-10-06T04:38:21.699Z,17.02
2018-10-06T04:40:50.058Z,16.81
2018-10-06T04:43:18.568Z,16.89
2018-10-06T04:45:46.867Z,16.67
2018-10-06T04:48:15.185Z,17.01
2018-10-06T04:50:43.490Z,16.91
2018-10-06T04:53:11.939Z,16.53
2018-10-06T04:55:40.198Z,16.75
2018-10-06T04:58:08.513Z,16.92
2018-10-06T05:00:37.158Z,16.59
2018-10-06T05:03:05.437Z,16.60
2018-10-06T05:05:33.733Z,16.75
2018-10-06T05:08:02.053Z,16.88
2018-10-06T05:10:30.488Z,16.62
2018-10-06T05:12:58.780Z,16.84
2018-10-06T05:15:27.202Z,17.07
2018-10-06T05:17:55.654Z,17.01
2018-10-06T05:20:23.921Z,17.00
2018-10-06T05:22:52.252Z,17.15
2018-10-06T05:25:20.668Z,17.09
2018-10-06T05:27:48.928Z,16.92
2018-10-06T05:30:17.360Z,16.51
2018-10-06T05:32:45.670Z,16.36
2018-10-06T05:35:13.973Z,16.36
2018-10-06T05:37:42.244Z,15.94
2018-10-06T05:40:10.609Z,16.26
2018-10-06T05:42:38.913Z,16.18
2018-10-06T05:45:07.372Z,16.24
2018-10-06T05:47:35.678Z,16.33
2018-10-06T05:50:04.082Z,16.42
2018-10-06T05:52:32.442Z,16.76
2018-10-06T05:55:00.729Z,16.62
2018-10-06T05:57:29.043Z,16.85
2018-10-06T05:59:57.353Z,16.94
2018-10-06T06:02:25.798Z,16.58
2018-10-06T06:04:54.099Z,16.78
2018-10-06T06:07:22.502Z,16.86
2018-10-06T06:09:50.936Z,16.89
2018-10-06T06:12:19.238Z,17.14
2018-10-06T06:14:47.695Z,16.85
2018-10-06T06:17:16.088Z,16.57
2018-10-06T06:19:44.399Z,16.82
2018-10-06T06:22:12.818Z,17.05
2018-10-06T06:24:41.117Z,16.64
2018-10-06T06:27:09.492Z,16.89
2018-10-06T06:29:37.947Z,17.41
2018-10-06T06:32:06.449Z,17.77
2018-10-06T06:34:35.604Z,17.64
2018-10-06T06:37:04.096Z,17.83
2018-10-06T06:39:32.586Z,17.89
2018-10-06T06:42:01.038Z,17.94
2018-10-06T06:44:29.480Z,18.09
2018-10-06T06:46:57.688Z,18.02
2018-10-06T06:49:25.997Z,18.39
2018-10-06T06:51:54.457Z,18.44
2018-10-06T06:54:22.809Z,18.61
2018-10-06T06:56:51.246Z,18.50
2018-10-06T06:59:19.585Z,19.10
2018-10-06T07:01:47.973Z,19.29
2018-10-06T07:04:16.308Z,19.13
2018-10-06T07:06:44.677Z,19.44
2018-10-06T07:09:12.969Z,19.62
2018-10-06T07:11:47.744Z,19.65
2018-10-06T07:14:16.115Z,19.66
2018-10-06T07:16:44.411Z,19.83
2018-10-06T07:19:13.541Z,19.76
2018-10-06T07:21:41.828Z,19.96
2018-10-06T07:24:10.223Z,19.39
2018-10-06T07:26:38.615Z,19.64
2018-10-06T07:29:07.067Z,19.92
2018-10-06T07:31:35.611Z,19.74
2018-10-06T07:34:03.915Z,19.76
2018-10-06T07:36:32.305Z,19.58
2018-10-06T07:39:00.632Z,20.17
2018-10-06T07:41:28.964Z,19.78
2018-10-06T07:43:58.181Z,19.77
2018-10-06T07:46:26.606Z,20.13
2018-10-06T07:48:55.046Z,20.40
2018-10-06T07:51:23.459Z,20.09
2018-10-06T07:53:51.791Z,20.11
2018-10-06T07:56:20.206Z,20.33
2018-10-06T07:58:48.498Z,20.01
2018-10-06T08:01:16.901Z,20.82
2018-10-06T08:03:45.343Z,21.20
2018-10-06T08:06:13.639Z,20.87
2018-10-06T08:08:41.989Z,21.30
2018-10-06T08:11:10.351Z,21.75
2018-10-06T08:13:38.698Z,22.17
2018-10-06T08:16:08.661Z,21.69
2018-10-06T08:18:37.043Z,22.28
2018-10-06T08:21:05.489Z,23.05
2018-10-06T08:23:34.160Z,23.41
2018-10-06T08:26:02.790Z,23.16
2018-10-06T08:28:31.157Z,22.96
2018-10-06T08:30:59.552Z,23.28
2018-10-06T08:33:27.956Z,23.55
2018-10-06T08:35:56.677Z,23.48
2018-10-06T08:38:25.095Z,24.32
2018-10-06T08:40:53.515Z,24.12
2018-10-06T08:43:21.960Z,24.75
2018-10-06T08:45:50.246Z,24.54
2018-10-06T08:48:18.539Z,24.32
2018-10-06T08:50:47.009Z,24.94
2018-10-06T08:53:15.449Z,24.38
2018-10-06T08:55:43.779Z,24.43
2018-10-06T08:58:12.161Z,24.76
2018-10-06T09:00:40.616Z,25.34
2018-10-06T09:03:09.246Z,25.59
2018-10-06T09:05:37.542Z,26.03
2018-10-06T09:08:06.096Z,26.14
2018-10-06T09:10:34.550Z,26.23
2018-10-06T09:13:02.869Z,26.25
2018-10-06T09:15:31.122Z,26.39
2018-10-06T09:17:59.489Z,26.20
2018-10-06T09:20:27.816Z,26.43
2018-10-06T09:22:56.124Z,26.15
2018-10-06T09:25:24.660Z,26.79
2018-10-06T09:27:53.109Z,26.74
2018-10-06T09:30:21.388Z,26.83
2018-10-06T09:32:49.672Z,27.16
2018-10-06T09:35:17.928Z,26.93
2018-10-06T09:37:46.196Z,26.78
2018-10-06T09:40:15.384Z,27.38
2018-10-06T09:42:43.841Z,27.29
2018-10-06T09:45:12.097Z,27.11
2018-10-06T09:47:40.409Z,27.26
2018-10-06T09:50:09.032Z,26.39
2018-10-06T09:52:37.456Z,26.70
2018-10-06T09:55:05.824Z,26.75
2018-10-06T09:57:34.344Z,26.32
2018-10-06T10:00:02.675Z,26.85
2018-10-06T10:02:36.304Z,27.62
2018-10-06T10:05:10.783Z,26.70
2018-10-06T10:07:39.176Z,26.83
2018-10-06T10:10:07.877Z,27.50
2018-10-06T10:12:36.401Z,27.53
2018-10-06T10:15:04.616Z,28.21
2018-10-06T10:17:33.002Z,27.57
2018-10-06T10:20:02.025Z,27.92
2018-10-06T10:22:30.542Z,28.29
2018-10-06T10:24:58.651Z,28.56
2018-10-06T10:27:27.040Z,27.80
2018-10-06T10:29:55.345Z,27.67
2018-10-06T10:32:23.845Z,27.70
2018-10-06T10:34:54.540Z,28.39
2018-10-06T10:37:23.219Z,27.98
2018-10-06T10:39:51.989Z,28.31
2018-10-06T10:42:20.253Z,28.43
2018-10-06T10:44:48.663Z,28.50
2018-10-06T10:47:17.117Z,29.09
2018-10-06T10:49:45.424Z,28.88
2018-10-06T10:52:13.777Z,28.88
2018-10-06T10:54:44.555Z,28.53
2018-10-06T10:57:13.388Z,29.35
2018-10-06T10:59:41.790Z,28.67
2018-10-06T11:02:10.191Z,29.59
2018-10-06T11:04:38.853Z,29.11
2018-10-06T11:07:07.576Z,30.14
2018-10-06T11:09:36.120Z,30.62
2018-10-06T11:12:04.479Z,30.44
2018-10-06T11:14:33.786Z,30.79
2018-10-06T11:17:02.201Z,30.96
2018-10-06T11:19:33.497Z,30.68
2018-10-06T11:22:01.774Z,30.78
2018-10-06T11:24:32.265Z,30.52
2018-10-06T11:27:02.496Z,31.55
2018-10-06T11:29:31.390Z,31.98
2018-10-06T11:32:01.640Z,32.55
2018-10-06T11:34:30.324Z,32.85
2018-10-06T11:36:58.583Z,31.97
2018-10-06T11:39:26.954Z,32.31
2018-10-06T11:41:55.260Z,32.01
2018-10-06T11:44:23.569Z,31.28
2018-10-06T11:46:51.840Z,31.31
2018-10-06T11:49:20.201Z,31.14
2018-10-06T11:51:48.498Z,31.78
2018-10-06T11:54:16.809Z,31.85
2018-10-06T11:56:45.173Z,31.78
2018-10-06T11:59:13.510Z,31.95
2018-10-06T12:01:41.917Z,32.00
2018-10-06T12:04:10.231Z,32.32
2018-10-06T12:06:38.559Z,32.57
2018-10-06T12:09:08.022Z,32.32
2018-10-06T12:11:36.695Z,31.62
2018-10-06T12:14:05.179Z,32.05
2018-10-06T12:16:33.510Z,32.36
2018-10-06T12:19:01.900Z,31.42
2018-10-06T12:21:30.706Z,31.93
2018-10-06T12:23:59.159Z,31.26
2018-10-06T12:26:27.487Z,30.84
2018-10-06T12:28:55.783Z,31.46
2018-10-06T12:31:24.170Z,30.95
2018-10-06T12:33:52.391Z,31.80
2018-10-06T12:36:20.756Z,31.99
2018-10-06T12:38:49.149Z,30.95
2018-10-06T12:41:17.571Z,31.75
2018-10-06T12:43:45.813Z,31.77
2018-10-06T12:46:14.083Z,32.14
2018-10-06T12:48:42.367Z,32.29
2018-10-06T12:51:10.589Z,32.18
2018-10-06T12:53:38.918Z,31.70
2018-10-06T12:56:07.898Z,32.27
2018-10-06T12:58:36.388Z,32.25
2018-10-06T13:01:04.716Z,31.64
2018-10-06T13:03:33.001Z,32.08
2018-10-06T13:06:01.345Z,32.31
2018-10-06T13:08:29.622Z,32.16
2018-10-06T13:10:57.939Z,32.74
2018-10-06T13:13:26.379Z,32.73
2018-10-06T13:15:54.656Z,32.21
2018-10-06T13:18:22.988Z,32.75
2018-10-06T13:20:51.289Z,33.10
2018-10-06T13:23:19.599Z,32.26
2018-10-06T13:25:47.870Z,32.78
2018-10-06T13:28:16.182Z,32.39
2018-10-06T13:30:44.446Z,32.96
2018-10-06T13:33:12.824Z,33.05
2018-10-06T13:35:41.178Z,32.40
2018-10-06T13:38:09.541Z,32.47
2018-10-06T13:40:37.861Z,32.00
2018-10-06T13:43:06.171Z,31.86
2018-10-06T13:45:34.518Z,32.33
2018-10-06T13:48:02.820Z,32.79
2018-10-06T13:50:31.312Z,32.78
2018-10-06T13:52:59.576Z,33.76
2018-10-06T13:55:27.867Z,34.07
2018-10-06T13:57:56.224Z,34.42
2018-10-06T14:00:24.467Z,34.95
2018-10-06T14:02:52.869Z,34.59
2018-10-06T14:05:21.256Z,34.71
2018-10-06T14:07:49.592Z,34.64
2018-10-06T14:10:18.440Z,34.66
2018-10-06T14:12:46.940Z,34.67
2018-10-06T14:15:15.321Z,34.41
2018-10-06T14:17:43.586Z,33.52
2018-10-06T14:20:11.987Z,33.60
2018-10-06T14:22:40.272Z,33.76
2018-10-06T14:25:08.610Z,34.20
2018-10-06T14:27:36.909Z,32.71
2018-10-06T14:30:05.235Z,32.68
2018-10-06T14:32:33.517Z,32.37
2018-10-06T14:35:01.841Z,32.56
2018-10-06T14:37:30.194Z,32.33
2018-10-06T14:39:58.614Z,32.74
2018-10-06T14:42:27.130Z,32.78
2018-10-06T14:44:55.438Z,32.53
2018-10-06T14:47:23.746Z,32.34
2018-10-06T14:49:52.106Z,32.29
2018-10-06T14:52:20.658Z,32.10
2018-10-06T14:54:49.160Z,32.03
2018-10-06T14:57:17.716Z,31.70
2018-10-06T14:59:46.138Z,31.64
2018-10-06T15:02:14.610Z,31.66
2018-10-06T15:04:42.966Z,31.42
2018-10-06T15:07:11.310Z,31.29
2018-10-06T15:09:39.603Z,31.19
2018-10-06T15:12:08.048Z,31.20
2018-10-06T15:14:36.396Z,30.96
2018-10-06T15:17:04.713Z,30.86
2018-10-06T15:19:33.044Z,30.82
2018-10-06T15:22:01.354Z,30.80
2018-10-06T15:24:29.852Z,30.65
2018-10-06T15:26:58.224Z,30.39
2018-10-06T15:29:26.562Z,30.44
2018-10-06T15:31:56.341Z,30.27
2018-10-06T15:34:25.380Z,30.07
2018-10-06T15:36:53.688Z,30.00
2018-10-06T15:39:22.039Z,30.07
2018-10-06T15:41:50.413Z,29.96
2018-10-06T15:44:18.713Z,29.61
2018-10-06T15:46:47.072Z,29.10
2018-10-06T15:49:15.356Z,29.15
2018-10-06T15:51:43.702Z,29.14
2018-10-06T15:54:12.070Z,29.04
2018-10-06T15:56:40.386Z,29.28
2018-10-06T15:59:08.644Z,29.14
2018-10-06T16:01:37.208Z,28.70
2018-10-06T16:04:05.585Z,28.82
2018-10-06T16:06:34.003Z,28.60
2018-10-06T16:09:02.427Z,28.60
2018-10-06T16:11:30.993Z,28.26
2018-10-06T16:13:59.274Z,28.13
2018-10-06T16:16:27.606Z,28.17
2018-10-06T16:18:55.905Z,28.09
2018-10-06T16:21:24.208Z,28.08
2018-10-06T16:23:52.434Z,27.84
2018-10-06T16:26:20.833Z,27.73
2018-10-06T16:28:49.300Z,27.61
2018-10-06T16:32:10.714Z,27.45
2018-10-06T16:34:39.129Z,27.22
2018-10-06T16:37:07.395Z,27.29
2018-10-06T16:39:35.902Z,27.10
2018-10-06T16:42:04.233Z,27.08
2018-10-06T16:44:32.660Z,26.85
2018-10-06T16:47:00.994Z,26.89
2018-10-06T16:49:29.316Z,26.68
2018-10-06T16:51:57.615Z,26.75
2018-10-06T16:54:25.978Z,26.56
2018-10-06T16:56:54.438Z,26.51
2018-10-06T16:59:22.767Z,26.43
2018-10-06T17:01:51.131Z,26.42
2018-10-06T17:04:19.374Z,26.30
2018-10-06T17:06:47.713Z,26.18
2018-10-06T17:09:16.131Z,26.20
2018-10-06T17:11:44.426Z,26.05
2018-10-06T17:14:12.747Z,25.95
2018-10-06T17:16:41.038Z,26.00
2018-10-06T17:19:09.404Z,25.94
2018-10-06T17:21:37.700Z,25.93
2018-10-06T17:24:06.885Z,25.90
2018-10-06T17:26:35.172Z,25.86
2018-10-06T17:29:03.444Z,25.85
2018-10-06T17:31:31.715Z,25.77
2018-10-06T17:34:00.064Z,25.93
2018-10-06T17:36:28.530Z,25.72
2018-10-06T17:38:57.301Z,25.68
2018-10-06T17:41:25.544Z,25.57
2018-10-06T17:43:53.992Z,25.51
2018-10-06T17:46:22.635Z,25.33
2018-10-06T17:48:50.949Z,25.27
2018-10-06T17:51:19.434Z,25.19
2018-10-06T17:53:47.803Z,25.15
2018-10-06T17:56:16.220Z,25.09
2018-10-06T17:58:44.677Z,25.00
2018-10-06T18:01:13.897Z,25.02
2018-10-06T18:03:42.254Z,24.91
2018-10-06T18:06:10.696Z,24.89
2018-10-06T18:08:39.009Z,24.77
2018-10-06T18:11:07.513Z,24.72
2018-10-06T18:13:35.970Z,24.65
2018-10-06T18:16:05.180Z,24.53
2018-10-06T18:18:33.623Z,24.57
2018-10-06T18:21:02.125Z,24.48
2018-10-06T18:23:30.429Z,24.55
2018-10-06T18:25:58.772Z,24.54
2018-10-06T18:28:29.785Z,24.50
2018-10-06T18:30:58.445Z,24.62
2018-10-06T18:33:26.743Z,24.68
2018-10-06T18:35:55.099Z,24.50
2018-10-06T18:38:23.413Z,24.53
2018-10-06T18:40:51.730Z,24.52
2018-10-06T18:43:20.172Z,24.50
2018-10-06T18:45:48.496Z,24.41
2018-10-06T18:48:16.796Z,24.42
2018-10-06T18:50:45.081Z,24.12
2018-10-06T18:53:13.424Z,24.15
2018-10-06T18:55:41.809Z,23.90
2018-10-06T18:58:10.084Z,23.97
2018-10-06T19:00:38.549Z,23.89
2018-10-06T19:03:07.510Z,23.94
2018-10-06T19:05:35.733Z,23.87
2018-10-06T19:08:04.082Z,23.56
2018-10-06T19:10:34.000Z,23.64
2018-10-06T19:13:02.304Z,23.42
2018-10-06T19:15:30.666Z,23.03
2018-10-06T19:22:10.781Z,22.95
2018-10-06T19:24:39.265Z,22.80
2018-10-06T19:27:07.622Z,23.28
2018-10-06T19:29:36.094Z,23.09
2018-10-06T19:32:04.540Z,23.22
2018-10-06T19:34:32.892Z,23.17
2018-10-06T19:37:01.242Z,23.19
2018-10-06T19:39:29.704Z,23.15
2018-10-06T19:41:58.045Z,22.31
2018-10-06T19:44:26.562Z,22.40
2018-10-06T19:46:54.982Z,22.60
2018-10-06T19:49:23.426Z,22.63
2018-10-06T19:51:51.737Z,22.88
2018-10-06T19:54:21.796Z,22.97
2018-10-06T19:56:52.395Z,23.11
2018-10-06T19:59:20.670Z,22.84
2018-10-06T20:01:49.113Z,22.93
2018-10-06T20:04:17.575Z,22.99
2018-10-06T20:06:45.922Z,23.03
2018-10-06T20:09:14.273Z,23.00
2018-10-06T20:11:42.671Z,22.95
2018-10-06T20:14:11.003Z,22.77
2018-10-06T20:16:39.467Z,22.83
2018-10-06T20:19:07.943Z,22.76
2018-10-06T20:21:36.356Z,22.88
2018-10-06T20:24:04.803Z,22.88
2018-10-06T20:26:33.240Z,22.87
2018-10-06T20:29:02.237Z,22.74
2018-10-06T20:31:30.647Z,22.76
2018-10-06T20:33:59.872Z,22.80
2018-10-06T20:36:28.218Z,22.62
2018-10-06T20:38:56.597Z,22.65
2018-10-06T20:41:24.944Z,22.62
2018-10-06T20:43:53.266Z,22.52
2018-10-06T20:46:21.699Z,22.58
2018-10-06T20:48:50.090Z,22.51
2018-10-06T20:51:18.416Z,23.22
2018-10-06T20:53:46.747Z,22.67
2018-10-06T20:56:15.048Z,23.28
2018-10-06T20:58:43.452Z,23.18
2018-10-06T21:01:11.732Z,23.28
2018-10-06T21:03:40.013Z,23.06
2018-10-06T21:06:08.550Z,22.62
2018-10-06T21:08:36.868Z,22.88
2018-10-06T21:11:05.166Z,23.02
2018-10-06T21:13:33.476Z,23.19
2018-10-06T21:16:01.816Z,23.23
2018-10-06T21:18:30.378Z,23.03
2018-10-06T21:20:58.716Z,22.76
2018-10-06T21:23:27.076Z,22.72
2018-10-06T21:25:58.301Z,22.47
2018-10-06T21:28:26.590Z,22.87
2018-10-06T21:30:55.059Z,23.14
2018-10-06T21:33:23.487Z,22.93
2018-10-06T21:35:51.824Z,22.83
2018-10-06T21:38:20.488Z,22.81
2018-10-06T21:40:49.091Z,23.01
2018-10-06T21:43:17.357Z,23.01
2018-10-06T21:45:45.798Z,23.28
2018-10-06T21:48:14.192Z,23.33
2018-10-06T21:50:42.511Z,23.15
2018-10-06T21:53:10.818Z,23.08
2018-10-06T21:55:39.185Z,22.75
2018-10-06T21:58:07.475Z,23.26
2018-10-06T22:00:35.760Z,23.24
2018-10-06T22:03:04.182Z,23.34
2018-10-06T22:05:32.512Z,23.04
2018-10-06T22:08:00.860Z,23.19
2018-10-06T22:10:29.182Z,23.28
2018-10-06T22:12:57.485Z,23.18
2018-10-06T22:15:25.818Z,23.23
2018-10-06T22:17:54.127Z,23.07
2018-10-06T22:20:22.407Z,23.16
2018-10-06T22:22:50.834Z,23.13
2018-10-06T22:25:19.356Z,22.70
2018-10-06T22:27:47.668Z,22.75
2018-10-06T22:30:15.968Z,22.75
2018-10-06T22:32:44.277Z,22.82
2018-10-06T22:35:12.600Z,22.97
2018-10-06T22:37:40.962Z,22.79
2018-10-06T22:40:09.318Z,22.91
2018-10-06T22:42:37.821Z,22.77
2018-10-06T22:45:06.847Z,22.30
2018-10-06T22:47:35.211Z,22.64
2018-10-06T22:50:03.630Z,22.52
2018-10-06T22:52:31.889Z,22.45
2018-10-06T22:55:00.254Z,22.40
2018-10-06T22:57:28.740Z,22.39
2018-10-06T22:59:57.113Z,22.37
2018-10-06T23:02:25.529Z,22.41
2018-10-06T23:04:53.890Z,22.16
2018-10-06T23:07:22.534Z,22.36
2018-10-06T23:09:51.005Z,22.50
2018-10-06T23:12:19.417Z,22.33
2018-10-06T23:14:47.795Z,22.38
2018-10-06T23:17:18.551Z,22.48
2018-10-06T23:19:47.540Z,22.21
2018-10-06T23:22:16.000Z,22.44
2018-10-06T23:24:45.065Z,22.39
2018-10-06T23:27:14.274Z,22.20
2018-10-06T23:29:42.550Z,22.05
2018-10-06T23:32:10.820Z,22.16
2018-10-06T23:34:39.145Z,22.14
2018-10-06T23:37:07.802Z,22.19
2018-10-06T23:39:36.114Z,22.04
2018-10-06T23:42:04.960Z,21.91
2018-10-06T23:44:33.509Z,22.05
2018-10-06T23:47:02.719Z,21.74
2018-10-06T23:49:30.992Z,22.03
2018-10-06T23:51:59.321Z,22.01
2018-10-06T23:54:27.746Z,21.95
2018-10-06T23:56:56.066Z,22.10
2018-10-06T23:59:24.351Z,21.72
